Air Sicilia Virtual Airways - Route

Air Sicilia Virtual Airways - SIC209L

( IT ) LIMZ
Cuneo International Airport
CUNEO ( CUF )
plane_to ( IT ) LIMG
Villanova D'Albenga International Airport
ALBENGA ( ALL )
IVAO VFR ITALY 2018 - LEG: 18

AIRPORT NEAR NAVIGATION AIDS

Type Name Frequency
NDB Levaldigi 371 KHZ

METAR / TAF
LIMZ 201850Z 13004KT 9999 BKN050 14/12 Q1006
LIMZ 201904Z 2018/2118 CNL

RUNWAY INFORMATION

Runway Runway length Runway width Runway elevation Runway displaced threshold Runway heading
03 6903 148 1267 0 32
21 6903 148 1217 0 212

AIRPORT FREQUENCIES

Type Name Frequency
AFIS CUNEO INFO 119.55 MHZ

AIRPORT NEAR NAVIGATION AIDS

Type Name Frequency
NDB Albenga 420 KHZ
VOR-DME Albenga 116950 KHZ

METAR / TAF
LIMG 201750Z 08007KT 9999 SCT015 OVC045 15/13 Q1008

RUNWAY INFORMATION

Runway Runway length Runway width Runway elevation Runway displaced threshold Runway heading
09 4688 148 145 295 94
27 4688 148 103 0 274

AIRPORT FREQUENCIES

Type Name Frequency
AFIS INFO 123.85 MHZ

Flightplan

via DRAGUIGNAN - SANT TROPEZ - NIZZA - IMPERIA - ALASSIO

Air Sicilia Virtual Airways Fleets

AVAILABLE AIRCRAFTS for route at this time in Cuneo International Airport
C172 - Cessna 172 Skyhawk
( US ) Cessna

Aircraft in fleet: 13

C208 - Cessna 208 Caravan
( US ) Cessna

Aircraft in fleet: 13

PC12 - Pilatus PC12 Eagle
( CH ) Pilatus

Aircraft in fleet: 4

180 NM

Distance in nautical miles.

€ 200,00

Ticket price for this flight.

Nr. 18

Leg



12-11-2018
Aerosoft Airport Rio de Janeiro International V2.0 XP

L'Aeroporto Internazionale di Rio de Janeiro-Galeão (IATA: GIG, ICAO: SBGL), costruito nel 1952 nel quartiere di Ilha do Governador ed intitolato al musicista Antônio Carlos Jobim, è il principale aeroporto internazio ....


15-10-2018
Aerosoft A320 Family professional

La gamma di aeromobili A320 è una delle più comuni nei cieli. Questi aerei di linea a doppio-getto a corto e medio raggio si sono dimostrati convenienti, affidabili e prontamente disponibili, rendendoli le opzioni migl ....


10-10-2018
Motore critico ( Critical Engine )

Il motore critico di un velivolo ad ala fissa multi-motore è il motore che, in caso di guasto, influirebbe negativamente sulle prestazioni o sulla capacità di manovra di un aereo. Sui velivoli ad elica, vi è un ....


04-10-2018
Aerosoft Dortmund XP

Scopri il centro della regione della Ruhr su XPlane 11 - lo scenario Dortmund XP è una ricostruzione completa della città di Dortmund per il simulatore di volo targato Laminar. Oltre all'intera area urbana di Dortmu ....


07-08-2018
Aerosoft Professional Flight Planner PFPX

PFPX - Professional Flight Planner X - è un nuovo ed innovativo strumento di pianificazione del volo sviluppato da piloti e dispatcher del mondo reale. È un'aggiunta preziosa e realistica alla tua esperienza di simulaz ....